Time;durP1;ratioP1;P1;durP2;ratioP2;P2;SDS_P1;SDS_P2;PMS_P1;PMS_P2;Temp;Humidity;BMP_temperature;BMP_pressure;BME280_temperature;BME280_humidity;BME280_pressure;Samples;Min_cycle;Max_cycle;Signal;HPM_P1;HPM_P2
2022/12/03 00:01:16;;;;;;;32.17;17.23;;;;;;;1.24;100.00;102157.56;5228173;28;20423;-67
2022/12/03 00:03:47;;;;;;;31.63;17.65;;;;;;;1.23;100.00;102158.44;5216797;28;20087;-67
2022/12/03 00:06:19;;;;;;;30.40;17.15;;;;;;;1.25;100.00;102152.28;5226671;28;20128;-67
2022/12/03 00:08:50;;;;;;;32.00;16.42;;;;;;;1.23;100.00;102143.56;5242273;28;20021;-68
2022/12/03 00:11:21;;;;;;;33.28;16.05;;;;;;;1.23;100.00;102153.19;5226187;28;20029;-67
2022/12/03 00:13:52;;;;;;;30.27;16.35;;;;;;;1.24;100.00;102152.28;5226851;28;20034;-67
2022/12/03 00:16:24;;;;;;;31.17;16.58;;;;;;;1.24;100.00;102153.16;5227484;28;20040;-67
2022/12/03 00:18:55;;;;;;;29.42;15.98;;;;;;;1.26;100.00;102148.75;5226945;28;20182;-67
2022/12/03 00:21:26;;;;;;;30.85;17.50;;;;;;;1.25;100.00;102143.53;5226656;28;20033;-67
2022/12/03 00:23:58;;;;;;;30.73;16.20;;;;;;;1.24;100.00;102145.28;5228150;28;20030;-67
2022/12/03 00:26:29;;;;;;;32.15;17.00;;;;;;;1.25;100.00;102138.28;5226061;28;20533;-66
2022/12/03 00:29:00;;;;;;;31.23;16.63;;;;;;;1.20;100.00;102135.69;5225908;28;20292;-66
2022/12/03 00:31:31;;;;;;;34.28;17.08;;;;;;;1.24;100.00;102132.13;5226364;28;20061;-67
2022/12/03 00:34:03;;;;;;;33.90;18.15;;;;;;;1.24;100.00;102133.91;5227811;28;20060;-67
2022/12/03 00:36:34;;;;;;;32.05;16.30;;;;;;;1.26;100.00;102130.34;5227104;28;20032;-67
2022/12/03 00:39:05;;;;;;;30.20;16.35;;;;;;;1.22;100.00;102128.66;5226409;28;20072;-66
2022/12/03 00:41:36;;;;;;;30.52;16.60;;;;;;;1.24;100.00;102131.25;5227224;28;20038;-67
2022/12/03 00:44:08;;;;;;;32.13;17.73;;;;;;;1.27;100.00;102126.81;5232354;28;20052;-67
2022/12/03 00:46:39;;;;;;;30.95;17.02;;;;;;;1.26;100.00;102127.72;5229330;28;20041;-67
2022/12/03 00:49:10;;;;;;;32.50;17.20;;;;;;;1.24;100.00;102121.59;5231431;28;20032;-67
2022/12/03 00:51:41;;;;;;;33.80;18.02;;;;;;;1.25;100.00;102127.75;5230361;28;20043;-67
2022/12/03 00:54:13;;;;;;;33.88;17.92;;;;;;;1.25;100.00;102135.66;5229508;28;20046;-66
2022/12/03 00:56:44;;;;;;;31.35;17.63;;;;;;;1.27;100.00;102129.47;5231148;28;20041;-67
2022/12/03 00:59:15;;;;;;;32.45;17.20;;;;;;;1.30;100.00;102134.66;5228829;28;20116;-67
2022/12/03 01:01:47;;;;;;;34.42;17.20;;;;;;;1.33;100.00;102139.00;5231637;28;20032;-67
2022/12/03 01:04:18;;;;;;;32.55;17.15;;;;;;;1.27;100.00;102126.81;5229234;28;20029;-67
2022/12/03 01:06:49;;;;;;;34.83;18.38;;;;;;;1.29;100.00;102135.56;5231897;28;20017;-67
2022/12/03 01:09:20;;;;;;;33.33;17.15;;;;;;;1.30;100.00;102134.66;5224279;28;20021;-67
2022/12/03 01:11:52;;;;;;;34.53;18.55;;;;;;;1.35;100.00;102131.97;5230263;28;20044;-67
2022/12/03 01:14:23;;;;;;;32.47;17.55;;;;;;;1.31;100.00;102127.66;5230014;28;20030;-67
2022/12/03 01:16:54;;;;;;;35.45;19.00;;;;;;;1.35;100.00;102126.69;5228795;28;20029;-67
2022/12/03 01:19:26;;;;;;;34.80;19.00;;;;;;;1.29;100.00;102130.28;5228616;28;20034;-67
2022/12/03 01:21:57;;;;;;;36.08;20.08;;;;;;;1.32;100.00;102126.72;5224577;28;20113;-67
2022/12/03 01:24:29;;;;;;;33.90;18.70;;;;;;;1.33;100.00;102125.84;5229789;28;20053;-67
2022/12/03 01:27:00;;;;;;;35.45;18.67;;;;;;;1.29;100.00;102129.44;5235140;28;20088;-67
2022/12/03 01:29:31;;;;;;;33.63;18.67;;;;;;;1.32;100.00;102127.63;5225036;28;20037;-67
2022/12/03 01:32:21;;;;;;;35.65;19.58;;;;;;;1.32;100.00;102135.50;5232710;28;20468;-67
2022/12/03 01:34:54;;;;;;;33.75;18.88;;;;;;;1.36;100.00;102129.31;5227712;28;20048;-67
2022/12/03 01:37:26;;;;;;;34.08;19.48;;;;;;;1.37;100.00;102125.75;5228733;28;20446;-67
2022/12/03 01:39:57;;;;;;;36.83;19.83;;;;;;;1.36;100.00;102124.03;5225811;28;20113;-67
2022/12/03 01:42:34;;;;;;;34.38;19.02;;;;;;;1.43;100.00;102126.56;5223668;28;20510;-67
2022/12/03 01:45:06;;;;;;;36.15;18.77;;;;;;;1.40;100.00;102121.34;5224164;28;20438;-67
2022/12/03 01:47:37;;;;;;;36.78;19.42;;;;;;;1.41;100.00;102121.31;5224903;28;20060;-66
2022/12/03 01:50:31;;;;;;;34.45;19.17;;;;;;;1.39;100.00;102119.63;5223653;28;20131;-67
2022/12/03 01:53:03;;;;;;;34.95;18.45;;;;;;;1.35;100.00;102113.53;5228617;28;20033;-67
2022/12/03 01:55:36;;;;;;;37.53;19.80;;;;;;;1.39;100.00;102119.63;5235400;28;20045;-67
2022/12/03 01:58:11;;;;;;;37.05;19.30;;;;;;;1.34;100.00;102119.69;5229546;28;20037;-67
2022/12/03 02:00:42;;;;;;;37.10;19.55;;;;;;;1.33;100.00;102110.09;5229711;28;20107;-67
2022/12/03 02:03:17;;;;;;;38.78;19.98;;;;;;;1.36;100.00;102110.91;5226405;28;20127;-67
2022/12/03 02:05:49;;;;;;;36.20;20.75;;;;;;;1.32;100.00;102114.47;5229769;28;20038;-67
2022/12/03 02:08:29;;;;;;;36.50;19.35;;;;;;;1.36;100.00;102108.28;5226689;28;20044;-67
2022/12/03 02:11:06;;;;;;;35.35;19.30;;;;;;;1.33;100.00;102110.94;5227752;28;20136;-67
2022/12/03 02:13:38;;;;;;;39.00;20.63;;;;;;;1.33;100.00;102112.72;5231719;28;20025;-67
2022/12/03 02:16:09;;;;;;;36.38;20.02;;;;;;;1.32;100.00;102111.84;5228503;28;20452;-67
2022/12/03 02:18:41;;;;;;;35.70;19.52;;;;;;;1.31;100.00;102112.72;5229326;28;20032;-67
2022/12/03 02:21:28;;;;;;;35.78;19.60;;;;;;;1.34;100.00;102115.31;5226385;28;20036;-67
2022/12/03 02:24:14;;;;;;;37.70;19.60;;;;;;;1.32;100.00;102116.22;5227716;28;20029;-67
2022/12/03 02:26:45;;;;;;;38.97;19.70;;;;;;;1.38;100.00;102102.97;5228353;28;20112;-67
2022/12/03 02:29:16;;;;;;;38.97;20.65;;;;;;;1.32;100.00;102105.69;5230638;28;20125;-67
2022/12/03 02:31:47;;;;;;;40.08;20.42;;;;;;;1.36;100.00;102104.75;5228566;28;20042;-67
2022/12/03 02:34:33;;;;;;;37.17;20.45;;;;;;;1.35;100.00;102109.16;5223043;28;20538;-67
2022/12/03 02:37:10;;;;;;;39.53;21.13;;;;;;;1.36;100.00;102099.50;5227769;28;20025;-67
2022/12/03 02:39:49;;;;;;;38.95;21.60;;;;;;;1.44;100.00;102107.25;5227798;28;20032;-67
2022/12/03 02:42:36;;;;;;;38.95;21.08;;;;;;;1.43;100.00;102100.25;5227150;28;20434;-67
2022/12/03 02:45:15;;;;;;;38.85;21.88;;;;;;;1.39;100.00;102106.47;5228001;28;20026;-67
2022/12/03 02:47:55;;;;;;;39.55;20.70;;;;;;;1.46;100.00;102097.56;5223960;28;20355;-67
2022/12/03 02:50:32;;;;;;;39.92;20.77;;;;;;;1.49;100.00;102097.50;5226687;28;20112;-67
2022/12/03 02:53:13;;;;;;;40.40;21.83;;;;;;;1.43;100.00;102095.00;5224700;28;20025;-67
2022/12/03 02:55:46;;;;;;;37.25;19.98;;;;;;;1.44;100.00;102099.34;5228231;28;20030;-67
2022/12/03 02:58:18;;;;;;;40.33;21.42;;;;;;;1.42;100.00;102093.25;5229660;28;20036;-66
2022/12/03 03:00:52;;;;;;;35.47;20.10;;;;;;;1.43;100.00;102095.00;5221144;28;20052;-67
2022/12/03 03:03:26;;;;;;;41.15;22.20;;;;;;;1.44;100.00;102088.84;5223799;28;20028;-67
2022/12/03 03:06:01;;;;;;;38.97;21.45;;;;;;;1.49;100.00;102106.25;5226552;28;20056;-67
2022/12/03 03:08:33;;;;;;;42.35;21.02;;;;;;;1.42;100.00;102093.25;5227507;28;20031;-67
2022/12/03 03:11:05;;;;;;;36.50;20.10;;;;;;;1.44;100.00;102086.19;5226645;28;20029;-69
2022/12/03 03:13:37;;;;;;;40.58;20.85;;;;;;;1.40;100.00;102088.03;5227308;28;20813;-67
2022/12/03 03:16:08;;;;;;;40.13;20.70;;;;;;;1.45;100.00;102090.59;5224492;28;20498;-67
2022/12/03 03:18:40;;;;;;;40.47;21.70;;;;;;;1.43;100.00;102084.47;5228782;28;20036;-67
2022/12/03 03:21:12;;;;;;;38.13;20.92;;;;;;;1.43;100.00;102081.84;5226889;28;20124;-67
2022/12/03 03:23:43;;;;;;;38.80;19.77;;;;;;;1.40;100.00;102082.78;5229962;28;20028;-67
2022/12/03 03:26:15;;;;;;;42.22;22.45;;;;;;;1.40;100.00;102085.41;5229636;28;20029;-67
2022/12/03 03:28:48;;;;;;;38.53;21.05;;;;;;;1.40;100.00;102074.00;5232968;28;21467;-67
2022/12/03 03:31:22;;;;;;;40.25;20.40;;;;;;;1.46;100.00;102068.63;5228819;28;20057;-67
2022/12/03 03:33:53;;;;;;;39.88;21.42;;;;;;;1.40;100.00;102074.00;5228006;28;20419;-67
2022/12/03 03:36:25;;;;;;;39.40;20.15;;;;;;;1.39;100.00;102077.56;5229476;28;20032;-68
2022/12/03 03:38:57;;;;;;;38.78;20.83;;;;;;;1.43;100.00;102077.44;5229989;28;20036;-67
2022/12/03 03:41:28;;;;;;;41.47;22.30;;;;;;;1.43;100.00;102076.59;5230671;28;20167;-67
2022/12/03 03:44:02;;;;;;;41.17;22.77;;;;;;;1.46;100.00;102071.25;5230441;28;20033;-67
2022/12/03 03:46:35;;;;;;;42.83;21.75;;;;;;;1.41;100.00;102074.00;5229350;28;20079;-67
2022/12/03 03:49:08;;;;;;;41.60;22.13;;;;;;;1.43;100.00;102060.81;5230653;28;20025;-67
2022/12/03 03:51:39;;;;;;;38.67;21.33;;;;;;;1.44;100.00;102060.78;5231532;28;20256;-67
2022/12/03 03:54:11;;;;;;;41.35;21.13;;;;;;;1.44;100.00;102071.31;5226885;28;20416;-67
2022/12/03 03:56:43;;;;;;;41.53;22.52;;;;;;;1.42;100.00;102067.84;5229645;28;20083;-67
2022/12/03 03:59:15;;;;;;;38.00;21.02;;;;;;;1.49;100.00;102071.22;5229225;28;20051;-67
2022/12/03 04:01:46;;;;;;;40.00;21.20;;;;;;;1.42;100.00;102062.59;5228106;28;20506;-67
2022/12/03 04:04:21;;;;;;;40.45;21.70;;;;;;;1.49;100.00;102060.69;5227937;28;20037;-67
2022/12/03 04:06:52;;;;;;;;;;;;;;;1.56;100.00;102062.31;5229899;28;20036;-68
2022/12/03 04:09:23;;;;;;;39.00;20.67;;;;;;;1.50;100.00;102065.06;5230476;28;20279;-67
2022/12/03 04:14:44;;;;;;;40.78;21.08;;;;;;;1.43;100.00;102058.19;5228604;28;20037;-67
2022/12/03 04:17:16;;;;;;;39.45;21.17;;;;;;;1.47;100.00;102057.22;5222244;28;20025;-67
2022/12/03 04:19:47;;;;;;;39.22;21.85;;;;;;;1.46;100.00;102058.09;5227795;28;20034;-67
2022/12/03 04:22:39;;;;;;;40.55;22.73;;;;;;;1.46;100.00;102060.75;5229114;28;20072;-67
2022/12/03 04:28:47;;;;;;;40.13;21.67;;;;;;;1.44;100.00;102059.91;5229347;28;20037;-67
2022/12/03 04:30:54;;;;;;;41.97;21.80;;;;;;;1.47;100.00;102052.81;5226471;28;20037;-67
2022/12/03 04:36:15;;;;;;;40.50;22.45;;;;;;;1.47;100.00;102059.84;5224454;28;20163;-67
2022/12/03 04:38:46;;;;;;;36.88;21.10;;;;;;;1.46;100.00;102063.38;5228970;28;20392;-67
2022/12/03 04:41:17;;;;;;;41.92;22.70;;;;;;;1.50;100.00;102065.06;5229901;28;20480;-67
2022/12/03 04:46:38;;;;;;;39.38;22.08;;;;;;;1.45;100.00;102051.13;5227622;28;20527;-67
2022/12/03 04:49:10;;;;;;;41.10;22.65;;;;;;;1.42;100.00;102051.19;5226270;28;20038;-67
2022/12/03 04:51:41;;;;;;;43.80;23.67;;;;;;;1.47;100.00;102051.97;5225799;28;20029;-67
2022/12/03 04:54:12;;;;;;;38.58;22.15;;;;;;;1.41;100.00;102047.69;5220247;28;20086;-67
2022/12/03 04:56:43;;;;;;;38.53;22.17;;;;;;;1.42;100.00;102051.19;5228233;28;20025;-67
2022/12/03 04:59:15;;;;;;;44.15;23.98;;;;;;;1.50;100.00;102041.41;5224725;28;20041;-67
2022/12/03 05:01:46;;;;;;;36.70;21.02;;;;;;;1.51;100.00;102048.38;5226841;28;20176;-67
2022/12/03 05:04:18;;;;;;;40.85;22.85;;;;;;;1.47;100.00;102041.44;5225367;28;20025;-67
2022/12/03 05:06:49;;;;;;;38.00;22.27;;;;;;;1.47;100.00;102041.44;5230856;28;20038;-67
2022/12/03 05:09:20;;;;;;;40.30;22.30;;;;;;;1.49;100.00;102040.50;5222916;28;20084;-67
2022/12/03 05:11:52;;;;;;;38.95;21.15;;;;;;;1.47;100.00;102038.81;5225288;28;20471;-67
2022/12/03 05:14:23;;;;;;;42.22;22.63;;;;;;;1.54;100.00;102029.91;5228781;28;20133;-67
2022/12/03 05:16:54;;;;;;;40.83;23.05;;;;;;;1.44;100.00;102034.50;5226079;28;20914;-67
2022/12/03 05:20:40;;;;;;;41.05;22.17;;;;;;;1.49;100.00;102037.88;5222648;28;20439;-67
2022/12/03 05:22:17;;;;;;;43.28;22.42;;;;;;;1.43;100.00;102029.25;5225567;28;20276;-67
2022/12/03 05:24:48;;;;;;;41.97;22.45;;;;;;;1.45;100.00;102035.34;5222016;28;20035;-67
2022/12/03 05:27:20;;;;;;;44.33;24.25;;;;;;;1.46;100.00;102032.69;5224471;28;20036;-67
2022/12/03 05:29:52;;;;;;;39.95;21.65;;;;;;;1.40;100.00;102030.19;5234847;28;20392;-67
2022/12/03 05:32:23;;;;;;;43.42;23.73;;;;;;;1.45;100.00;102033.59;5229426;28;20033;-67
2022/12/03 05:34:54;;;;;;;39.90;22.90;;;;;;;1.42;100.00;102035.41;5229236;28;20490;-67
2022/12/03 05:37:25;;;;;;;43.65;24.27;;;;;;;1.40;100.00;102037.19;5231886;28;20472;-67
2022/12/03 05:39:57;;;;;;;42.25;22.95;;;;;;;1.43;100.00;102026.63;5228723;28;20447;-67
2022/12/03 05:45:25;;;;;;;41.95;22.05;;;;;;;1.47;100.00;102028.31;5228113;28;20068;-67
2022/12/03 05:47:57;;;;;;;44.13;22.70;;;;;;;1.51;100.00;102027.34;5228884;28;20041;-67
2022/12/03 05:50:31;;;;;;;46.47;25.98;;;;;;;1.43;100.00;102021.38;5228173;28;20041;-67
2022/12/03 05:53:03;;;;;;;41.57;22.50;;;;;;;1.43;100.00;102022.22;5228345;28;20033;-67
2022/12/03 05:55:34;;;;;;;41.58;22.67;;;;;;;1.39;100.00;102019.69;5228888;28;20300;-67
2022/12/03 05:58:05;;;;;;;42.22;23.77;;;;;;;1.45;100.00;102015.19;5227134;28;20036;-68
2022/12/03 06:00:37;;;;;;;45.42;24.52;;;;;;;1.40;100.00;102021.41;5232284;28;20025;-67
2022/12/03 06:03:09;;;;;;;46.63;23.52;;;;;;;1.43;100.00;102018.75;5228642;28;20978;-67
2022/12/03 06:05:40;;;;;;;42.78;22.92;;;;;;;1.41;100.00;102015.28;5228833;28;20064;-67
2022/12/03 06:08:12;;;;;;;42.60;22.77;;;;;;;1.39;100.00;102011.81;5225395;28;20527;-67
2022/12/03 06:10:43;;;;;;;41.15;22.58;;;;;;;1.42;100.00;102014.38;5229334;28;20483;-67
2022/12/03 06:13:15;;;;;;;45.85;24.65;;;;;;;1.43;100.00;102016.97;5225535;28;20501;-67
2022/12/03 06:15:46;;;;;;;46.08;24.25;;;;;;;1.43;100.00;102010.84;5231286;28;20025;-67
2022/12/03 06:18:17;;;;;;;42.17;23.60;;;;;;;1.43;100.00;102011.72;5230740;28;20376;-67
2022/12/03 06:20:49;;;;;;;45.13;23.60;;;;;;;1.43;100.00;102006.44;5231327;28;20041;-67
2022/12/03 06:23:20;;;;;;;45.00;23.63;;;;;;;1.41;100.00;102010.03;5227170;28;20041;-67
2022/12/03 06:25:51;;;;;;;48.10;23.83;;;;;;;1.42;100.00;102004.75;5229418;28;20065;-67
2022/12/03 06:28:23;;;;;;;46.15;23.33;;;;;;;1.42;100.00;102012.63;5229767;28;20033;-67
2022/12/03 06:30:54;;;;;;;50.63;24.92;;;;;;;1.40;100.00;102010.91;5225417;28;20509;-67
2022/12/03 06:33:25;;;;;;;44.67;23.48;;;;;;;1.35;100.00;102014.50;5227363;28;20463;-67
2022/12/03 06:35:56;;;;;;;43.00;23.17;;;;;;;1.36;100.00;102021.50;5225633;28;20491;-67
2022/12/03 06:38:28;;;;;;;45.58;23.90;;;;;;;1.36;100.00;102021.50;5229055;28;20029;-67
2022/12/03 06:40:59;;;;;;;41.72;23.85;;;;;;;1.36;100.00;102015.34;5231301;28;20420;-67
2022/12/03 06:43:31;;;;;;;46.28;24.02;;;;;;;1.39;100.00;102009.19;5227698;28;20094;-67
2022/12/03 06:46:02;;;;;;;43.80;23.15;;;;;;;1.40;100.00;102011.78;5226262;28;20160;-67
2022/12/03 06:48:33;;;;;;;44.47;23.38;;;;;;;1.41;100.00;102016.13;5224220;28;20415;-67
2022/12/03 06:51:04;;;;;;;46.13;24.27;;;;;;;1.39;100.00;102010.03;5233986;28;20023;-67
2022/12/03 06:53:36;;;;;;;46.35;23.65;;;;;;;1.44;100.00;102012.56;5226302;28;20506;-67
2022/12/03 06:56:07;;;;;;;43.50;22.88;;;;;;;1.38;100.00;102008.28;5229254;28;20022;-67
2022/12/03 06:58:38;;;;;;;46.20;23.30;;;;;;;1.41;100.00;102007.38;5229672;28;20582;-67
2022/12/03 07:01:10;;;;;;;43.47;22.98;;;;;;;1.35;100.00;102011.00;5224862;28;20044;-67
2022/12/03 07:03:41;;;;;;;43.92;22.23;;;;;;;1.29;100.00;102019.88;5225492;28;20403;-67
2022/12/03 07:06:13;;;;;;;44.90;23.20;;;;;;;1.31;100.00;102015.44;5228632;28;20026;-67
2022/12/03 07:08:44;;;;;;;46.63;23.50;;;;;;;1.36;100.00;102015.34;5227028;28;20049;-67
2022/12/03 07:11:31;;;;;;;42.67;23.08;;;;;;;1.37;100.00;102010.06;5229305;28;20120;-67
2022/12/03 07:14:05;;;;;;;45.63;22.90;;;;;;;1.31;100.00;102017.22;5227301;28;20116;-67
2022/12/03 07:16:37;;;;;;;43.50;23.03;;;;;;;1.27;100.00;102016.41;5228141;28;20356;-67
2022/12/03 07:19:09;;;;;;;42.40;22.48;;;;;;;1.30;100.00;102011.06;5229388;28;20307;-67
2022/12/03 07:21:40;;;;;;;43.05;22.33;;;;;;;1.31;100.00;102020.72;5224915;28;20033;-67
2022/12/03 07:24:11;;;;;;;42.22;22.10;;;;;;;1.35;100.00;102019.75;5226247;28;20083;-67
2022/12/03 07:26:43;;;;;;;44.67;22.45;;;;;;;1.33;100.00;102010.16;5229110;28;20029;-67
2022/12/03 07:29:14;;;;;;;43.35;22.60;;;;;;;1.31;100.00;102010.19;5229236;28;20061;-67
2022/12/03 07:31:45;;;;;;;43.40;21.92;;;;;;;1.33;100.00;102012.78;5226252;28;20101;-67
2022/12/03 07:34:16;;;;;;;44.50;22.73;;;;;;;1.34;100.00;102009.25;5226984;28;21616;-67
2022/12/03 07:36:48;;;;;;;46.15;22.30;;;;;;;1.32;100.00;102008.41;5228703;28;20464;-68
2022/12/03 07:39:19;;;;;;;40.00;20.65;;;;;;;1.32;100.00;102004.06;5228206;28;20029;-67
2022/12/03 07:41:50;;;;;;;43.22;22.35;;;;;;;1.29;100.00;102004.09;5228050;28;20072;-67
2022/12/03 07:44:21;;;;;;;41.38;21.60;;;;;;;1.30;100.00;102011.06;5227739;28;20037;-67
2022/12/03 07:46:53;;;;;;;43.05;22.65;;;;;;;1.41;100.00;102007.38;5229958;28;20052;-67
2022/12/03 07:49:25;;;;;;;39.70;21.27;;;;;;;1.39;100.00;102007.41;5224075;28;20036;-67
2022/12/03 07:51:56;;;;;;;44.55;23.17;;;;;;;1.44;100.00;102010.81;5226607;28;20057;-67
2022/12/03 07:54:28;;;;;;;44.05;22.10;;;;;;;1.41;100.00;102012.66;5227337;28;20065;-67
2022/12/03 07:56:59;;;;;;;37.25;20.83;;;;;;;1.41;100.00;102015.28;5228478;28;20033;-68
2022/12/03 07:59:30;;;;;;;39.17;21.17;;;;;;;1.45;100.00;102011.69;5229202;28;20475;-67
2022/12/03 08:02:01;;;;;;;42.15;22.00;;;;;;;1.38;100.00;102013.56;5226679;28;20737;-67
2022/12/03 08:04:33;;;;;;;42.95;22.52;;;;;;;1.41;100.00;102016.13;5220982;28;20519;-67
2022/12/03 08:07:04;;;;;;;39.72;21.08;;;;;;;1.45;100.00;102012.53;5226890;28;21018;-67
2022/12/03 08:09:39;;;;;;;45.33;21.55;;;;;;;1.42;100.00;102017.00;5227410;28;20607;-67
2022/12/03 08:12:23;;;;;;;43.97;22.33;;;;;;;1.39;100.00;102017.06;5227288;28;20615;-67
2022/12/03 08:14:55;;;;;;;41.75;21.73;;;;;;;1.42;100.00;102017.00;5229282;28;20075;-67
2022/12/03 08:17:27;;;;;;;41.00;20.67;;;;;;;1.42;100.00;102024.88;5228084;28;20034;-67
2022/12/03 08:19:58;;;;;;;42.85;21.60;;;;;;;1.43;100.00;102016.97;5226223;28;20091;-67
2022/12/03 08:22:30;;;;;;;44.15;20.67;;;;;;;1.53;100.00;102017.66;5233167;28;20052;-67
2022/12/03 08:25:01;;;;;;;41.42;20.15;;;;;;;1.47;100.00;102010.75;5226229;28;20036;-67
2022/12/03 08:27:32;;;;;;;39.05;19.73;;;;;;;1.46;100.00;102014.28;5225619;28;20351;-67
2022/12/03 08:30:04;;;;;;;42.10;21.65;;;;;;;1.56;100.00;102020.22;5231067;28;20810;-67
2022/12/03 08:32:35;;;;;;;37.45;19.95;;;;;;;1.46;100.00;102019.56;5224244;28;20026;-67
2022/12/03 08:35:11;;;;;;;38.50;19.00;;;;;;;1.47;100.00;102016.00;5230386;28;20396;-68
2022/12/03 08:37:42;;;;;;;42.92;20.77;;;;;;;1.47;100.00;102017.78;5223349;28;20120;-68
2022/12/03 08:40:26;;;;;;;42.75;20.70;;;;;;;1.51;100.00;102024.72;5225775;28;20037;-67
2022/12/03 08:42:57;;;;;;;41.92;20.13;;;;;;;1.48;100.00;102022.16;5228888;28;20055;-67
2022/12/03 08:45:33;;;;;;;40.95;19.48;;;;;;;1.51;100.00;102015.03;5222262;28;20029;-67
2022/12/03 08:48:33;;;;;;;41.35;20.33;;;;;;;1.56;100.00;102017.59;5228459;28;20691;-67
2022/12/03 08:51:24;;;;;;;41.30;20.80;;;;;;;1.55;100.00;102015.84;5222991;28;20080;-67
2022/12/03 08:54:10;;;;;;;41.42;20.08;;;;;;;1.55;100.00;102022.00;5227945;28;20191;-68
2022/12/03 08:56:42;;;;;;;40.08;19.55;;;;;;;1.57;100.00;102011.44;5224929;28;20510;-67
2022/12/03 08:59:25;;;;;;;39.72;20.33;;;;;;;1.55;100.00;102018.47;5233518;28;20101;-67
2022/12/03 09:01:58;;;;;;;39.97;20.70;;;;;;;1.56;100.00;102014.97;5231463;28;20045;-67
2022/12/03 09:04:37;;;;;;;39.55;19.70;;;;;;;1.55;100.00;102016.75;5230996;28;20176;-68
2022/12/03 09:07:09;;;;;;;41.17;21.00;;;;;;;1.56;100.00;102018.47;5232459;28;20386;-67
2022/12/03 09:09:40;;;;;;;41.45;20.65;;;;;;;1.58;100.00;102022.84;5233979;28;20499;-68
2022/12/03 09:12:11;;;;;;;40.25;20.33;;;;;;;1.59;100.00;102014.03;5232727;28;20041;-68
2022/12/03 09:14:42;;;;;;;43.08;20.27;;;;;;;1.57;100.00;102016.69;5230560;28;20665;-67
2022/12/03 09:17:14;;;;;;;39.95;20.88;;;;;;;1.61;100.00;102013.13;5228255;28;20519;-67
2022/12/03 09:19:45;;;;;;;42.38;21.05;;;;;;;1.64;100.00;102010.41;5227336;28;20033;-67
2022/12/03 09:22:16;;;;;;;42.17;21.08;;;;;;;1.60;100.00;102024.53;5229372;28;20055;-68
2022/12/03 09:24:48;;;;;;;42.22;20.70;;;;;;;1.59;100.00;102024.56;5231215;28;20032;-67
2022/12/03 09:27:21;;;;;;;45.08;21.15;;;;;;;1.56;100.00;102020.22;5231886;28;20034;-67
2022/12/03 09:29:52;;;;;;;39.47;20.13;;;;;;;1.56;100.00;102022.88;5229739;28;20095;-68
2022/12/03 09:32:24;;;;;;;38.45;18.70;;;;;;;1.53;100.00;102017.66;5232278;28;20041;-67
2022/12/03 09:34:56;;;;;;;42.65;20.58;;;;;;;1.51;100.00;102022.94;5228743;28;20037;-67
2022/12/03 09:37:27;;;;;;;40.70;20.70;;;;;;;1.50;100.00;102017.72;5233323;28;20104;-67
2022/12/03 09:39:58;;;;;;;40.17;20.02;;;;;;;1.51;100.00;102024.72;5229076;28;20090;-68
2022/12/03 09:42:30;;;;;;;40.50;20.02;;;;;;;1.51;100.00;102015.03;5227666;28;20065;-67
2022/12/03 09:45:04;;;;;;;44.75;20.75;;;;;;;1.50;100.00;102017.72;5228849;28;20037;-67
2022/12/03 09:47:39;;;;;;;40.25;18.42;;;;;;;1.51;100.00;102008.94;5237386;28;20107;-67
2022/12/03 09:50:19;;;;;;;38.75;19.50;;;;;;;1.56;100.00;102007.09;5240999;28;20033;-67
2022/12/03 09:52:53;;;;;;;43.22;21.42;;;;;;;1.50;100.00;102013.34;5232382;28;20417;-68
2022/12/03 09:55:27;;;;;;;36.47;18.67;;;;;;;1.51;100.00;101998.41;5239673;28;20403;-68
2022/12/03 09:57:59;;;;;;;38.53;19.20;;;;;;;1.47;100.00;102000.22;5246745;28;20071;-68
2022/12/03 10:00:30;;;;;;;39.42;19.05;;;;;;;1.48;100.00;101995.84;5231971;28;20029;-68
2022/12/03 10:03:05;;;;;;;38.20;19.98;;;;;;;1.51;100.00;101998.41;5228182;28;20107;-67
2022/12/03 10:05:36;;;;;;;38.97;19.27;;;;;;;1.49;100.00;102006.31;5242578;28;20045;-67
2022/12/03 10:08:11;;;;;;;37.67;18.98;;;;;;;1.45;100.00;102003.78;5230180;28;20021;-68
2022/12/03 10:10:43;;;;;;;38.15;18.52;;;;;;;1.44;100.00;101994.16;5228298;28;20026;-67
2022/12/03 10:13:25;;;;;;;37.15;17.65;;;;;;;1.53;100.00;101996.59;5234993;28;20948;-68
2022/12/03 10:15:58;;;;;;;37.45;18.13;;;;;;;1.51;100.00;101986.13;5229091;28;20480;-67
2022/12/03 10:18:33;;;;;;;32.92;16.60;;;;;;;1.51;100.00;101987.88;5229985;28;20029;-68
2022/12/03 10:21:11;;;;;;;;;;;;;;;1.59;100.00;101983.31;5235179;28;20044;-68
2022/12/03 10:23:43;;;;;;;35.05;17.35;;;;;;;1.52;100.00;101984.38;5234097;28;19925;-68
2022/12/03 10:26:15;;;;;;;31.90;15.68;;;;;;;1.51;100.00;101977.38;5235188;28;20531;-67
2022/12/03 10:28:46;;;;;;;31.52;16.02;;;;;;;1.50;100.00;101975.66;5231640;28;20021;-67
2022/12/03 10:31:17;;;;;;;33.63;16.38;;;;;;;1.49;100.00;101977.38;5228939;28;20040;-67
2022/12/03 10:33:57;;;;;;;31.13;15.98;;;;;;;1.43;100.00;101969.63;5230607;28;20033;-68
2022/12/03 10:36:28;;;;;;;31.27;16.15;;;;;;;1.45;100.00;101972.25;5227737;28;20033;-68
2022/12/03 10:39:14;;;;;;;31.08;15.55;;;;;;;1.51;100.00;101966.84;5232588;28;20032;-67
2022/12/03 10:41:46;;;;;;;30.23;16.17;;;;;;;1.47;100.00;101955.53;5234563;28;20037;-68
2022/12/03 10:44:20;;;;;;;32.20;16.25;;;;;;;1.45;100.00;101953.84;5228671;28;20036;-68
2022/12/03 10:47:08;;;;;;;35.33;16.38;;;;;;;1.55;100.00;101950.09;5226417;28;20037;-68
2022/12/03 10:49:40;;;;;;;31.13;15.65;;;;;;;1.50;100.00;101962.50;5229190;28;20032;-67
2022/12/03 10:52:21;;;;;;;33.38;16.58;;;;;;;1.55;100.00;101945.72;5234064;28;20260;-68
2022/12/03 10:54:52;;;;;;;34.20;16.08;;;;;;;1.61;100.00;101944.75;5235582;28;20059;-68
2022/12/03 10:57:24;;;;;;;33.47;16.10;;;;;;;1.56;100.00;101934.28;5235202;28;20026;-68
2022/12/03 10:59:55;;;;;;;34.03;15.98;;;;;;;1.54;100.00;101927.34;5234372;28;20021;-68
2022/12/03 11:02:26;;;;;;;34.60;17.92;;;;;;;1.64;100.00;101922.75;5232147;28;20503;-68
2022/12/03 11:04:58;;;;;;;32.95;16.20;;;;;;;1.63;100.00;101936.78;5232041;28;20038;-68
2022/12/03 11:07:29;;;;;;;33.28;16.90;;;;;;;1.70;100.00;101927.88;5236416;28;20472;-68
2022/12/03 11:10:01;;;;;;;31.95;16.33;;;;;;;1.67;100.00;101930.56;5234672;28;20539;-67
2022/12/03 11:12:34;;;;;;;26.10;15.52;;;;;;;1.71;100.00;101919.94;5234730;28;20079;-68
2022/12/03 11:15:13;;;;;;;29.70;15.77;;;;;;;1.73;100.00;101928.66;5234728;28;20075;-68
2022/12/03 11:17:52;;;;;;;27.42;14.70;;;;;;;1.82;100.00;101926.72;5224634;28;20505;-68
2022/12/03 11:20:23;;;;;;;28.60;15.07;;;;;;;1.78;100.00;101928.56;5237301;28;20075;-68
2022/12/03 11:22:56;;;;;;;30.00;15.65;;;;;;;1.80;100.00;101920.63;5231490;28;20018;-68
2022/12/03 11:25:28;;;;;;;31.70;16.50;;;;;;;1.75;100.00;101915.50;5240136;28;20038;-68
2022/12/03 11:28:14;;;;;;;33.45;17.38;;;;;;;1.76;100.00;101920.72;5228564;28;20044;-68
2022/12/03 11:30:48;;;;;;;32.00;18.38;;;;;;;1.70;100.00;101910.31;5228117;28;20030;-68
2022/12/03 11:33:25;;;;;;;31.15;17.45;;;;;;;1.72;100.00;101908.50;5230955;28;20120;-68
2022/12/03 11:36:02;;;;;;;33.33;17.63;;;;;;;1.68;100.00;101900.72;5229042;28;20128;-68
2022/12/03 11:38:36;;;;;;;34.38;17.95;;;;;;;1.70;100.00;101904.19;5233275;28;20047;-68
2022/12/03 11:41:15;;;;;;;31.33;16.92;;;;;;;1.69;100.00;101905.09;5228374;28;20036;-68
2022/12/03 11:43:54;;;;;;;28.83;16.00;;;;;;;1.63;100.00;101907.84;5227899;28;20049;-68
2022/12/03 11:46:37;;;;;;;29.98;16.67;;;;;;;1.67;100.00;101899.88;5228911;28;20108;-68
2022/12/03 11:49:24;;;;;;;30.42;16.80;;;;;;;1.67;100.00;101894.63;5221356;28;20045;-68
2022/12/03 11:51:57;;;;;;;31.80;17.63;;;;;;;1.67;100.00;101884.09;5224754;28;20059;-68